Aeroporto :
LOGIN :

Iscrizione | Disclaimer

   EN    FR    IT 

 










Sommario :    VFR   VFR Marginale   IFR   IFR Intensivo   IFR Molto Intensivo
Visibilità : 
Base nubi : 
>= 8 km
>= 3000ft
5 / 8 km
1000 / 3000 ft
1500m / 5 km
500 / 1000 ft
800 / 1500m
200 / 500 ft
< 800m
< 200 ft
Simboli :   Temporali  Nebbia  Neve Forte  Precipitazioni Forti  Vento > 20 kt
SIGMETs :   Varie  Temporali  Ghiacco  Turbolenza  Onda orograficha  Ceneri Vulcaniche







- Altitudine del aeroporto : 41 ft


LIRE - Pratica di Mare Air Base Pomezia

ULTIMO METAR :
  • 261355Z 07008KT 9999 SCT016 BKN040 17/15 Q1009 RMK OVC VIS MIN 9999 WIND THR13 11003KT WIND THR31 /////KT BLU

METARs OBSOLETI :
  • 261255Z 12009KT 9999 SCT020 BKN040 18/14 Q1009 RMK OVC VIS MIN 9999 WIND THR13 13009KT WIND THR31 /////KT BLU

TAF TAF LIRE
Valido dal 26 a 15 ore il 27 a 00 ore UTC


261400Z 2615/2624 11010KT 8000 SCT020 BKN050
TEMPO 2615/2621 5000 RA BKN015
PROB40
TEMPO 2615/2618 3000 SHRA FEW018CB OVC028
Nessun NOTAM noto per questo aeroporto.
3 SIGMETs conosciuti per la FIR Roma (LIRR) :
 
Temporali affogati
LIRR SIGMET 7 VALID 261440/261640 LIIB
LIRR ROMA FIR EMBD TS FCST WI N3955 E01543 - N3630 E01401 - N3628 E01732 - N3852 E01753 - N3855 E01634 - N3955 E01543 TOP FL380 MOV NE NC=
Turbolenza severa
LIRR SIGMET 6 VALID 261440/261640 LIIB
LIRR ROMA FIR SEV TURB FCST WI N4117 E00853 - N3837 E00848 - N3707 E01220 - N4120 E01238 - N4153 E01147 - N4154 E00945 - N4116 E00946 - N4117 E00853 FL240/360 STNR NC=
Turbolenza severa
LIRR SIGMET 4 VALID 261140/261440 LIIB
LIRR ROMA FIR SEV TURB FCST WI N4117 E00853 - N3837 E00848 - N3707 E01220 - N4120 E01238 - N4153 E01147 - N4154 E00945 - N4116 E00946 - N4117 E00853 FL240/360 STNR NC=



MetMap, La meteo Aeronautica in un colpo d'occhio ! - Copyright ORBIFLY Dicembre 2007 - Disclaimer

ORBIFLY MET'MAP TEAM :

Programmazione e sviluppo : Alexandra Zaïnal
Concezione e sviluppo : Baudouin d'Aumeries
Co-Programmazione e sviluppo : Marc-Olivier Méhu
Supporto tecnico e logistico : Manuel Goepfert
Aiuto per la traduzione : Arnaldo La Scala

Contatto : metmap@orbifly.com




FONTI E CREDITI :

   NOAA